Time;durP1;ratioP1;P1;durP2;ratioP2;P2;SDS_P1;SDS_P2;PMS_P1;PMS_P2;Temp;Humidity;BMP_temperature;BMP_pressure;BME280_temperature;BME280_humidity;BME280_pressure;Samples;Min_cycle;Max_cycle;Signal;HPM_P1;HPM_P2
2022/03/15 00:01:36;;;;;;;7.35;4.78;;;;;12.50;102658.00;;;;5002362;28;20225;-76
2022/03/15 00:04:05;;;;;;;6.80;3.85;;;;;12.40;102650.00;;;;4993078;28;20194;-75
2022/03/15 00:06:34;;;;;;;5.82;3.17;;;;;12.40;102664.00;;;;4992926;28;20201;-76
2022/03/15 00:09:01;;;;;;;6.32;3.47;;;;;12.40;102656.00;;;;4991924;28;20197;-75
2022/03/15 00:11:30;;;;;;;5.93;3.40;;;;;12.40;102652.00;;;;4992449;28;20224;-76
2022/03/15 00:13:58;;;;;;;6.78;3.67;;;;;12.40;102648.00;;;;4993792;28;20241;-77
2022/03/15 00:16:25;;;;;;;5.03;3.72;;;;;12.40;102647.00;;;;4986103;28;20699;-76
2022/03/15 00:18:53;;;;;;;5.90;3.20;;;;;12.40;102641.00;;;;4998895;28;20213;-77
2022/03/15 00:21:22;;;;;;;5.85;2.65;;;;;12.30;102634.00;;;;4993641;28;20296;-76
2022/03/15 00:23:49;;;;;;;8.48;3.67;;;;;12.30;102627.00;;;;4993042;28;20221;-77
2022/03/15 00:26:16;;;;;;;9.10;3.80;;;;;12.30;102623.00;;;;4993283;28;21055;-77
2022/03/15 00:28:44;;;;;;;5.07;3.40;;;;;12.30;102626.00;;;;4993108;28;20205;-77
2022/03/15 00:31:11;;;;;;;5.05;3.30;;;;;12.30;102623.00;;;;4993753;28;20198;-76
2022/03/15 00:33:39;;;;;;;4.70;3.08;;;;;12.30;102628.00;;;;4991124;28;20210;-77
2022/03/15 00:36:06;;;;;;;5.70;3.80;;;;;12.30;102627.00;;;;4993510;28;20205;-76
2022/03/15 00:38:35;;;;;;;7.60;3.50;;;;;12.30;102622.00;;;;4992787;28;20213;-76
2022/03/15 00:41:02;;;;;;;4.97;3.05;;;;;12.30;102623.00;;;;4992402;28;20293;-76
2022/03/15 00:43:29;;;;;;;7.13;3.65;;;;;12.30;102620.00;;;;4993275;28;20552;-76
2022/03/15 00:45:56;;;;;;;6.72;3.53;;;;;12.30;102617.00;;;;4992719;28;20225;-76
2022/03/15 00:48:24;;;;;;;7.97;3.80;;;;;12.30;102625.00;;;;4991125;28;20208;-76
2022/03/15 00:50:51;;;;;;;6.72;3.83;;;;;12.30;102627.00;;;;4994470;28;20657;-77
2022/03/15 00:53:19;;;;;;;7.93;3.08;;;;;12.30;102628.00;;;;5000513;28;20217;-76
2022/03/15 00:55:47;;;;;;;5.80;3.40;;;;;12.30;102632.00;;;;4993261;28;20221;-76
2022/03/15 00:58:15;;;;;;;5.15;3.33;;;;;12.30;102628.00;;;;4992338;28;20198;-76
2022/03/15 01:00:48;;;;;;;6.05;3.72;;;;;12.30;102625.00;;;;4993123;28;20218;-76
2022/03/15 01:03:15;;;;;;;5.57;3.65;;;;;12.30;102618.00;;;;4992239;28;20591;-77
2022/03/15 01:05:42;;;;;;;9.85;3.63;;;;;12.30;102615.00;;;;4993147;28;20312;-77
2022/03/15 01:08:09;;;;;;;5.88;3.80;;;;;12.30;102614.00;;;;4994537;28;20256;-76
2022/03/15 01:10:37;;;;;;;5.00;3.00;;;;;12.30;102609.00;;;;4993126;28;20198;-76
2022/03/15 01:13:05;;;;;;;4.82;3.10;;;;;12.20;102609.00;;;;4991937;28;20197;-76
2022/03/15 01:15:40;;;;;;;4.70;3.63;;;;;12.30;102610.00;;;;4985918;28;20230;-77
2022/03/15 01:18:07;;;;;;;5.25;3.45;;;;;12.20;102605.00;;;;4974487;28;20692;-76
2022/03/15 01:20:34;;;;;;;14.52;5.35;;;;;12.20;102598.00;;;;4992019;28;20200;-77
2022/03/15 01:23:02;;;;;;;6.13;3.35;;;;;12.30;102591.00;;;;4983827;28;20548;-76
2022/03/15 01:25:30;;;;;;;5.30;3.30;;;;;12.20;102582.00;;;;5010431;28;20275;-77
2022/03/15 01:27:58;;;;;;;5.47;3.78;;;;;12.30;102582.00;;;;4996141;28;20727;-76
2022/03/15 01:30:26;;;;;;;5.20;3.63;;;;;12.20;102583.00;;;;4991589;28;20198;-76
2022/03/15 01:32:53;;;;;;;6.35;4.15;;;;;12.30;102584.00;;;;4992026;28;20215;-76
2022/03/15 01:35:21;;;;;;;5.47;4.05;;;;;12.30;102579.00;;;;4989905;28;20260;-76
2022/03/15 01:37:48;;;;;;;5.03;3.13;;;;;12.30;102580.00;;;;4991330;28;20260;-76
2022/03/15 01:40:16;;;;;;;4.13;3.47;;;;;12.30;102575.00;;;;4991859;28;20194;-76
2022/03/15 01:42:43;;;;;;;5.32;3.20;;;;;12.30;102566.00;;;;5000069;28;20212;-76
2022/03/15 01:45:11;;;;;;;5.13;3.50;;;;;12.30;102569.00;;;;5011204;28;20240;-77
2022/03/15 01:47:42;;;;;;;6.50;3.67;;;;;12.30;102572.00;;;;5010414;28;20201;-77
2022/03/15 01:50:10;;;;;;;4.95;3.25;;;;;12.30;102565.00;;;;4985156;28;20197;-76
2022/03/15 01:52:37;;;;;;;5.82;3.50;;;;;12.30;102565.00;;;;4991086;28;20628;-76
2022/03/15 01:55:06;;;;;;;3.60;3.10;;;;;12.30;102568.00;;;;4990558;28;20201;-76
2022/03/15 01:57:34;;;;;;;4.70;3.50;;;;;12.40;102570.00;;;;4991459;28;20594;-76
2022/03/15 02:00:01;;;;;;;5.20;3.28;;;;;12.40;102567.00;;;;5003400;28;20256;-76
2022/03/15 02:02:29;;;;;;;5.47;3.25;;;;;12.40;102569.00;;;;5011731;28;20298;-77
2022/03/15 02:04:58;;;;;;;6.85;3.42;;;;;12.40;102567.00;;;;5012091;28;20691;-76
2022/03/15 02:07:25;;;;;;;6.20;4.05;;;;;12.50;102561.00;;;;5006426;28;20291;-76
2022/03/15 02:09:53;;;;;;;6.50;3.75;;;;;12.50;102555.00;;;;4991789;28;20525;-76
2022/03/15 02:12:20;;;;;;;5.68;3.90;;;;;12.50;102556.00;;;;4991518;28;20213;-76
2022/03/15 02:14:47;;;;;;;5.97;4.38;;;;;12.50;102559.00;;;;4991748;28;20244;-76
2022/03/15 02:17:15;;;;;;;9.75;3.95;;;;;12.50;102550.00;;;;5003580;28;20255;-76
2022/03/15 02:19:44;;;;;;;5.97;4.68;;;;;12.50;102544.00;;;;4993530;28;20201;-77
2022/03/15 02:22:12;;;;;;;8.45;4.20;;;;;12.60;102556.00;;;;4994217;28;20205;-77
2022/03/15 02:24:40;;;;;;;6.40;4.13;;;;;12.60;102543.00;;;;4981398;28;20846;-76
2022/03/15 02:27:07;;;;;;;7.22;4.47;;;;;12.60;102541.00;;;;4976160;28;20293;-76
2022/03/15 02:29:34;;;;;;;6.55;4.13;;;;;12.60;102545.00;;;;4999111;28;20251;-76
2022/03/15 02:32:02;;;;;;;8.25;4.22;;;;;12.60;102540.00;;;;5005122;28;20198;-76
2022/03/15 02:34:29;;;;;;;7.57;4.50;;;;;12.60;102535.00;;;;4990987;28;20202;-76
2022/03/15 02:36:56;;;;;;;7.80;5.03;;;;;12.70;102526.00;;;;4989967;28;20557;-76
2022/03/15 02:39:25;;;;;;;6.97;4.88;;;;;12.70;102529.00;;;;4990674;28;20194;-76
2022/03/15 02:41:52;;;;;;;11.65;5.32;;;;;12.70;102528.00;;;;4990984;28;20209;-76
2022/03/15 02:44:19;;;;;;;8.27;5.25;;;;;12.70;102526.00;;;;4992649;28;20288;-77
2022/03/15 02:46:50;;;;;;;12.38;6.30;;;;;12.70;102525.00;;;;4991076;28;20585;-76
2022/03/15 02:49:17;;;;;;;8.40;5.32;;;;;12.70;102520.00;;;;4992184;28;20227;-76
2022/03/15 02:51:45;;;;;;;11.25;6.03;;;;;12.80;102521.00;;;;5003254;28;20640;-76
2022/03/15 02:54:13;;;;;;;10.18;6.20;;;;;12.80;102520.00;;;;4990529;28;20549;-76
2022/03/15 02:56:43;;;;;;;10.05;6.20;;;;;12.80;102525.00;;;;4991099;28;20193;-76
2022/03/15 02:59:14;;;;;;;10.15;5.82;;;;;12.80;102524.00;;;;4990814;28;20296;-76
2022/03/15 03:01:41;;;;;;;10.57;6.45;;;;;12.80;102520.00;;;;4990581;28;20335;-76
2022/03/15 03:04:10;;;;;;;10.30;6.28;;;;;12.80;102516.00;;;;4991867;28;20224;-76
2022/03/15 03:06:37;;;;;;;12.95;7.95;;;;;12.90;102512.00;;;;4992234;28;20255;-76
2022/03/15 03:09:05;;;;;;;12.82;7.82;;;;;12.90;102510.00;;;;5010643;28;20212;-77
2022/03/15 03:11:32;;;;;;;11.50;7.93;;;;;12.90;102510.00;;;;5010311;28;20222;-77
2022/03/15 03:14:02;;;;;;;10.52;7.35;;;;;12.90;102508.00;;;;5011012;28;20228;-76
2022/03/15 03:16:29;;;;;;;12.55;8.18;;;;;13.00;102503.00;;;;5008383;28;20206;-76
2022/03/15 03:18:58;;;;;;;14.00;7.60;;;;;12.90;102505.00;;;;4994724;28;20288;-77
2022/03/15 03:21:27;;;;;;;13.63;8.88;;;;;13.00;102500.00;;;;4992708;28;20602;-76
2022/03/15 03:23:55;;;;;;;11.50;8.20;;;;;13.00;102506.00;;;;4989055;28;20216;-77
2022/03/15 03:26:24;;;;;;;11.18;7.70;;;;;13.00;102507.00;;;;5008833;28;20225;-77
2022/03/15 03:28:51;;;;;;;14.93;8.13;;;;;13.10;102509.00;;;;4990255;28;20248;-77
2022/03/15 03:31:20;;;;;;;14.52;7.88;;;;;13.10;102510.00;;;;4990357;28;20201;-74
2022/03/15 03:33:47;;;;;;;10.55;8.25;;;;;13.10;102512.00;;;;4987099;28;20217;-75
2022/03/15 03:36:14;;;;;;;16.40;9.32;;;;;13.10;102506.00;;;;4987489;28;20225;-75
2022/03/15 03:38:42;;;;;;;13.77;8.10;;;;;13.10;102508.00;;;;4999810;28;20196;-75
2022/03/15 03:41:09;;;;;;;14.55;8.82;;;;;13.20;102503.00;;;;4999762;28;20225;-74
2022/03/15 03:43:37;;;;;;;10.68;7.75;;;;;13.20;102506.00;;;;4974205;28;20204;-75
2022/03/15 03:46:04;;;;;;;13.05;8.23;;;;;13.20;102497.00;;;;4979669;28;20722;-75
2022/03/15 03:48:32;;;;;;;15.02;8.73;;;;;13.20;102504.00;;;;4988793;28;20201;-75
2022/03/15 03:51:01;;;;;;;12.80;8.07;;;;;13.20;102506.00;;;;4988838;28;20202;-75
2022/03/15 03:53:28;;;;;;;12.25;8.10;;;;;13.20;102503.00;;;;4988816;28;20205;-75
2022/03/15 03:55:56;;;;;;;13.10;8.48;;;;;13.30;102496.00;;;;4988458;28;21025;-75
2022/03/15 03:58:23;;;;;;;13.27;8.95;;;;;13.30;102504.00;;;;4995717;28;20300;-75
2022/03/15 04:00:51;;;;;;;13.18;8.35;;;;;13.30;102504.00;;;;5008759;28;20209;-75
2022/03/15 04:03:19;;;;;;;12.23;8.32;;;;;13.30;102494.00;;;;5008483;28;20200;-75
2022/03/15 04:05:49;;;;;;;14.38;8.55;;;;;13.30;102504.00;;;;5000582;28;20221;-75
2022/03/15 04:08:17;;;;;;;13.98;9.13;;;;;13.30;102494.00;;;;4989533;28;20269;-76
2022/03/15 04:10:46;;;;;;;12.30;7.82;;;;;13.30;102497.00;;;;4988783;28;20205;-76
2022/03/15 04:13:18;;;;;;;11.68;8.23;;;;;13.40;102498.00;;;;4988319;28;20209;-75
2022/03/15 04:15:45;;;;;;;12.82;7.80;;;;;13.40;102495.00;;;;4993701;28;20564;-75
2022/03/15 04:18:13;;;;;;;11.65;8.15;;;;;13.40;102498.00;;;;4990388;28;20209;-75
2022/03/15 04:20:41;;;;;;;12.50;8.98;;;;;13.40;102505.00;;;;4988991;28;20194;-76
2022/03/15 04:23:10;;;;;;;13.10;7.88;;;;;13.40;102493.00;;;;4990203;28;20197;-76
2022/03/15 04:25:37;;;;;;;10.50;7.45;;;;;13.40;102502.00;;;;4991734;28;20598;-76
2022/03/15 04:28:06;;;;;;;11.63;8.07;;;;;13.40;102507.00;;;;4992201;28;20205;-76
2022/03/15 04:30:34;;;;;;;14.20;8.57;;;;;13.40;102499.00;;;;4992318;28;20212;-76
2022/03/15 04:33:02;;;;;;;10.35;7.38;;;;;13.40;102502.00;;;;5002475;28;20216;-76
2022/03/15 04:35:31;;;;;;;10.50;7.50;;;;;13.40;102501.00;;;;4990960;28;20296;-76
2022/03/15 04:37:58;;;;;;;12.00;8.02;;;;;13.40;102500.00;;;;4992210;28;20260;-76
2022/03/15 04:40:27;;;;;;;11.00;7.75;;;;;13.40;102501.00;;;;4988654;28;20787;-76
2022/03/15 04:42:54;;;;;;;10.63;7.55;;;;;13.40;102500.00;;;;4992643;28;20210;-76
2022/03/15 04:45:22;;;;;;;11.73;8.65;;;;;13.40;102493.00;;;;4993000;28;20464;-76
2022/03/15 04:47:49;;;;;;;11.70;7.45;;;;;13.40;102488.00;;;;4993139;28;20209;-76
2022/03/15 04:50:17;;;;;;;11.85;8.27;;;;;13.40;102495.00;;;;4996309;28;20240;-77
2022/03/15 04:52:44;;;;;;;11.13;7.82;;;;;13.40;102488.00;;;;4992524;28;20201;-76
2022/03/15 04:55:12;;;;;;;13.65;8.70;;;;;13.40;102490.00;;;;4995342;28;20189;-76
2022/03/15 04:57:42;;;;;;;11.60;7.70;;;;;13.40;102485.00;;;;4998668;28;20205;-76
2022/03/15 05:00:11;;;;;;;11.25;8.18;;;;;13.40;102484.00;;;;4992864;28;20208;-76
2022/03/15 05:02:40;;;;;;;11.52;7.47;;;;;13.40;102472.00;;;;4990747;28;20229;-76
2022/03/15 05:05:08;;;;;;;12.23;8.30;;;;;13.40;102468.00;;;;4991657;28;20198;-76
2022/03/15 05:07:35;;;;;;;12.48;7.82;;;;;13.40;102467.00;;;;5008189;28;20698;-76
2022/03/15 05:12:50;;;;;;;10.38;8.05;;;;;13.40;102463.00;;;;5011877;28;20212;-76
2022/03/15 05:15:17;;;;;;;10.75;7.53;;;;;13.40;102455.00;;;;5000092;28;20233;-76
2022/03/15 05:17:45;;;;;;;10.40;7.00;;;;;13.40;102457.00;;;;4990755;28;20206;-76
2022/03/15 05:20:14;;;;;;;11.30;8.07;;;;;13.40;102460.00;;;;4990855;28;20285;-76
2022/03/15 05:22:41;;;;;;;11.23;7.90;;;;;13.40;102464.00;;;;4991123;28;20206;-76
2022/03/15 05:25:11;;;;;;;12.82;9.27;;;;;13.40;102463.00;;;;4980976;28;20202;-76
2022/03/15 05:27:38;;;;;;;10.60;7.68;;;;;13.40;102459.00;;;;4990719;28;20225;-76
2022/03/15 05:30:08;;;;;;;11.82;8.98;;;;;13.40;102462.00;;;;4990403;28;20210;-76
2022/03/15 05:32:36;;;;;;;11.85;8.40;;;;;13.40;102451.00;;;;4987558;28;20194;-76
2022/03/15 05:35:03;;;;;;;12.00;7.72;;;;;13.40;102453.00;;;;4989081;28;20854;-76
2022/03/15 05:37:31;;;;;;;11.00;7.68;;;;;13.40;102459.00;;;;4991908;28;20210;-76
2022/03/15 05:40:00;;;;;;;10.55;7.82;;;;;13.40;102456.00;;;;4995457;28;20216;-76
2022/03/15 05:42:28;;;;;;;10.93;7.75;;;;;13.40;102456.00;;;;4999230;28;20215;-76
2022/03/15 05:44:55;;;;;;;12.43;8.23;;;;;13.40;102452.00;;;;4992830;28;20674;-76
2022/03/15 05:47:25;;;;;;;10.75;7.45;;;;;13.40;102456.00;;;;4989191;28;20292;-77
2022/03/15 05:49:52;;;;;;;12.95;7.93;;;;;13.40;102449.00;;;;4990792;28;20209;-77
2022/03/15 05:52:19;;;;;;;9.68;7.13;;;;;13.40;102446.00;;;;4992059;28;20205;-76
2022/03/15 05:54:47;;;;;;;12.05;8.05;;;;;13.40;102450.00;;;;4991155;28;20209;-75
2022/03/15 05:57:14;;;;;;;11.23;7.57;;;;;13.40;102450.00;;;;4995273;28;20979;-75
2022/03/15 05:59:41;;;;;;;11.38;7.45;;;;;13.40;102456.00;;;;4988355;28;20288;-76
2022/03/15 06:02:08;;;;;;;11.23;7.90;;;;;13.50;102441.00;;;;4996482;28;20609;-75
2022/03/15 06:04:37;;;;;;;9.98;7.45;;;;;13.40;102435.00;;;;4987067;28;20201;-75
2022/03/15 06:07:05;;;;;;;10.77;8.15;;;;;13.50;102430.00;;;;4986525;28;20238;-75
2022/03/15 06:09:33;;;;;;;9.95;7.10;;;;;13.40;102430.00;;;;4983639;28;20189;-75
2022/03/15 06:12:00;;;;;;;13.68;7.85;;;;;13.50;102431.00;;;;4977390;28;20213;-75
2022/03/15 06:14:27;;;;;;;10.75;7.82;;;;;13.50;102431.00;;;;4986101;28;20232;-75
2022/03/15 06:16:54;;;;;;;10.23;7.90;;;;;13.50;102423.00;;;;4993680;28;20208;-75
2022/03/15 06:19:22;;;;;;;10.93;7.70;;;;;13.50;102426.00;;;;4989341;28;20206;-75
2022/03/15 06:21:50;;;;;;;11.10;7.30;;;;;13.50;102433.00;;;;4988922;28;20194;-75
2022/03/15 06:24:18;;;;;;;10.80;7.38;;;;;13.50;102438.00;;;;4989901;28;20205;-75
2022/03/15 06:26:46;;;;;;;10.25;7.57;;;;;13.50;102430.00;;;;4976828;28;20663;-75
2022/03/15 06:29:13;;;;;;;11.07;8.55;;;;;13.50;102424.00;;;;4985777;28;20788;-74
2022/03/15 06:31:40;;;;;;;11.38;7.65;;;;;13.50;102431.00;;;;4992322;28;20212;-75
2022/03/15 06:34:07;;;;;;;10.02;7.32;;;;;13.50;102426.00;;;;4988457;28;20201;-76
2022/03/15 06:36:35;;;;;;;12.02;7.35;;;;;13.50;102427.00;;;;4991526;28;20213;-76
2022/03/15 06:39:05;;;;;;;11.13;7.72;;;;;13.50;102424.00;;;;4990910;28;20276;-76
2022/03/15 06:41:38;;;;;;;8.75;7.28;;;;;13.60;102427.00;;;;4991166;28;20213;-76
2022/03/15 06:44:06;;;;;;;8.68;7.15;;;;;13.60;102414.00;;;;4990218;28;20556;-76
2022/03/15 06:46:33;;;;;;;10.43;7.30;;;;;13.60;102427.00;;;;4989810;28;20225;-75
2022/03/15 06:49:01;;;;;;;14.88;7.47;;;;;13.60;102417.00;;;;4990783;28;20626;-75
2022/03/15 06:51:29;;;;;;;9.10;7.20;;;;;13.60;102417.00;;;;4990421;28;20255;-75
2022/03/15 06:53:56;;;;;;;11.68;7.22;;;;;13.70;102409.00;;;;4985047;28;20644;-77
2022/03/15 06:56:25;;;;;;;8.75;6.63;;;;;13.70;102408.00;;;;4987589;28;20209;-76
2022/03/15 06:58:52;;;;;;;9.85;7.15;;;;;13.70;102409.00;;;;4990075;28;20213;-75
2022/03/15 07:01:19;;;;;;;8.02;6.32;;;;;13.70;102416.00;;;;4989512;28;20867;-75
2022/03/15 07:03:46;;;;;;;10.07;6.78;;;;;13.70;102410.00;;;;4989675;28;20260;-75
2022/03/15 07:06:14;;;;;;;8.80;6.65;;;;;13.80;102404.00;;;;5002602;28;20667;-75
2022/03/15 07:08:41;;;;;;;9.63;7.00;;;;;13.80;102409.00;;;;5009153;28;20211;-75
2022/03/15 07:11:08;;;;;;;9.35;7.22;;;;;13.80;102410.00;;;;4990138;28;20241;-74
2022/03/15 07:13:37;;;;;;;10.90;7.00;;;;;13.80;102405.00;;;;4984546;28;20205;-73
2022/03/15 07:16:04;;;;;;;9.65;6.45;;;;;13.90;102404.00;;;;4988735;28;20209;-74
2022/03/15 07:18:31;;;;;;;11.60;7.15;;;;;13.90;102398.00;;;;4988547;28;20209;-74
2022/03/15 07:20:58;;;;;;;9.48;6.50;;;;;13.90;102404.00;;;;4988561;28;20671;-73
2022/03/15 07:23:26;;;;;;;10.80;7.22;;;;;14.00;102409.00;;;;5003492;28;20197;-73
2022/03/15 07:25:54;;;;;;;9.80;7.05;;;;;14.00;102405.00;;;;5003676;28;20201;-73
2022/03/15 07:28:21;;;;;;;11.43;7.30;;;;;14.00;102397.00;;;;4988717;28;20221;-74
2022/03/15 07:30:49;;;;;;;9.48;5.85;;;;;14.00;102406.00;;;;4988423;28;20932;-74
2022/03/15 07:33:16;;;;;;;14.18;7.93;;;;;14.10;102399.00;;;;4981407;28;20201;-74
2022/03/15 07:35:44;;;;;;;7.93;6.18;;;;;14.10;102398.00;;;;4988908;28;20608;-75
2022/03/15 07:38:13;;;;;;;12.27;6.97;;;;;14.10;102402.00;;;;4988637;28;20208;-75
2022/03/15 07:40:42;;;;;;;8.88;5.63;;;;;14.10;102406.00;;;;5005711;28;20579;-75
2022/03/15 07:43:09;;;;;;;10.40;6.38;;;;;14.20;102406.00;;;;5007601;28;20193;-75
2022/03/15 07:45:36;;;;;;;9.30;6.43;;;;;14.20;102399.00;;;;5008310;28;20217;-75
2022/03/15 07:48:06;;;;;;;8.60;6.28;;;;;14.20;102399.00;;;;5008461;28;20240;-75
2022/03/15 07:50:34;;;;;;;8.27;5.82;;;;;14.30;102394.00;;;;5008327;28;20679;-75
2022/03/15 07:53:01;;;;;;;8.63;5.93;;;;;14.30;102396.00;;;;5008649;28;20263;-75
2022/03/15 07:55:28;;;;;;;10.98;6.07;;;;;14.30;102401.00;;;;4994925;28;20202;-74
2022/03/15 07:57:56;;;;;;;8.85;6.43;;;;;14.30;102403.00;;;;4991942;28;20617;-75
2022/03/15 08:00:23;;;;;;;7.20;5.47;;;;;14.40;102410.00;;;;4992256;28;20210;-75
2022/03/15 08:02:51;;;;;;;8.02;6.10;;;;;14.40;102403.00;;;;4992186;28;20264;-75
2022/03/15 08:05:20;;;;;;;9.38;6.47;;;;;14.40;102405.00;;;;4991461;28;20194;-74
2022/03/15 08:07:47;;;;;;;10.60;6.13;;;;;14.50;102413.00;;;;4991564;28;20661;-75
2022/03/15 08:10:15;;;;;;;9.90;5.95;;;;;14.50;102408.00;;;;4991329;28;20201;-75
2022/03/15 08:12:42;;;;;;;10.57;6.20;;;;;14.60;102411.00;;;;4992525;28;20206;-75
2022/03/15 08:15:11;;;;;;;7.07;5.95;;;;;14.60;102403.00;;;;4982597;28;20233;-75
2022/03/15 08:17:39;;;;;;;10.63;6.22;;;;;14.60;102407.00;;;;4976483;28;20352;-74
2022/03/15 08:20:08;;;;;;;6.95;5.07;;;;;14.70;102405.00;;;;4972387;28;20264;-74
2022/03/15 08:22:37;;;;;;;7.57;5.57;;;;;14.70;102406.00;;;;4979522;28;20194;-75
2022/03/15 08:25:05;;;;;;;8.18;6.05;;;;;14.80;102397.00;;;;4977336;28;20198;-75
2022/03/15 08:27:32;;;;;;;8.20;5.95;;;;;14.80;102396.00;;;;4972103;28;20229;-75
2022/03/15 08:30:00;;;;;;;9.75;6.15;;;;;14.80;102401.00;;;;4978789;28;20212;-75
2022/03/15 08:32:27;;;;;;;7.03;5.80;;;;;14.90;102393.00;;;;4991879;28;20197;-75
2022/03/15 08:34:54;;;;;;;7.13;5.38;;;;;14.90;102393.00;;;;4988804;28;20201;-75
2022/03/15 08:37:21;;;;;;;6.07;4.93;;;;;15.00;102387.00;;;;4991529;28;20271;-75
2022/03/15 08:39:50;;;;;;;9.07;6.30;;;;;15.00;102392.00;;;;4989793;28;20197;-75
2022/03/15 08:42:17;;;;;;;5.70;5.07;;;;;15.10;102393.00;;;;4991713;28;20201;-75
2022/03/15 08:44:44;;;;;;;7.78;5.22;;;;;15.10;102396.00;;;;4991308;28;20716;-75
2022/03/15 08:47:12;;;;;;;7.07;5.03;;;;;15.10;102389.00;;;;4995834;28;20239;-75
2022/03/15 08:49:41;;;;;;;9.85;5.20;;;;;15.20;102388.00;;;;5010732;28;20750;-75
2022/03/15 08:52:10;;;;;;;6.72;4.55;;;;;15.20;102378.00;;;;5010547;28;20205;-75
2022/03/15 08:54:38;;;;;;;7.68;4.88;;;;;15.30;102385.00;;;;5011023;28;20193;-75
2022/03/15 08:57:07;;;;;;;8.02;4.63;;;;;15.30;102381.00;;;;5010995;28;20587;-75
2022/03/15 08:59:34;;;;;;;8.48;4.88;;;;;15.30;102383.00;;;;5010330;28;20224;-75
2022/03/15 09:02:01;;;;;;;6.80;4.60;;;;;15.40;102378.00;;;;5007976;28;20221;-75
2022/03/15 09:04:29;;;;;;;7.95;4.82;;;;;15.40;102378.00;;;;4998272;28;20295;-75
2022/03/15 09:06:56;;;;;;;8.13;4.47;;;;;15.50;102382.00;;;;5010899;28;20610;-75
2022/03/15 09:09:25;;;;;;;8.38;4.80;;;;;15.50;102382.00;;;;5003427;28;20208;-75
2022/03/15 09:11:52;;;;;;;8.40;4.55;;;;;15.60;102377.00;;;;4991680;28;20201;-75
2022/03/15 09:14:21;;;;;;;7.72;4.40;;;;;15.60;102383.00;;;;4990767;28;20233;-75
2022/03/15 09:16:48;;;;;;;6.57;4.28;;;;;15.70;102374.00;;;;4990763;28;20201;-75
2022/03/15 09:19:16;;;;;;;5.93;4.35;;;;;15.70;102372.00;;;;4989843;28;20201;-75
2022/03/15 09:21:44;;;;;;;5.57;4.25;;;;;15.80;102367.00;;;;4999441;28;20208;-75
2022/03/15 09:24:11;;;;;;;7.38;4.50;;;;;15.80;102374.00;;;;5009925;28;20661;-75
2022/03/15 09:26:42;;;;;;;5.65;4.25;;;;;15.90;102370.00;;;;5009550;28;20688;-75
2022/03/15 09:29:10;;;;;;;5.60;4.03;;;;;16.00;102372.00;;;;4996895;28;20607;-75
2022/03/15 09:31:39;;;;;;;4.22;3.63;;;;;16.00;102368.00;;;;4989995;28;20585;-75
2022/03/15 09:34:07;;;;;;;4.93;3.92;;;;;16.10;102376.00;;;;4988973;28;20204;-75
2022/03/15 09:36:35;;;;;;;5.75;3.97;;;;;16.20;102383.00;;;;4990480;28;20735;-74
2022/03/15 09:39:06;;;;;;;5.85;3.75;;;;;16.20;102371.00;;;;5002457;28;20205;-75
2022/03/15 09:41:35;;;;;;;6.00;4.40;;;;;16.30;102372.00;;;;5010469;28;20216;-75
2022/03/15 09:44:03;;;;;;;5.50;4.00;;;;;16.30;102364.00;;;;5009422;28;20747;-75
2022/03/15 09:46:32;;;;;;;6.07;3.50;;;;;16.40;102374.00;;;;5009983;28;20584;-75
2022/03/15 09:49:02;;;;;;;4.75;3.90;;;;;16.40;102373.00;;;;5010500;28;20224;-75
2022/03/15 09:51:32;;;;;;;4.47;3.65;;;;;16.50;102366.00;;;;5009691;28;20208;-75
2022/03/15 09:54:01;;;;;;;4.10;3.22;;;;;16.50;102368.00;;;;5010067;28;20197;-75
2022/03/15 09:56:29;;;;;;;6.18;3.70;;;;;16.60;102354.00;;;;5009357;28;20215;-75
2022/03/15 09:58:56;;;;;;;5.53;3.55;;;;;16.60;102360.00;;;;4999617;28;20264;-75
2022/03/15 10:01:24;;;;;;;4.88;3.42;;;;;16.70;102348.00;;;;4989701;28;20213;-75
2022/03/15 10:03:51;;;;;;;7.63;3.95;;;;;16.70;102348.00;;;;4990038;28;20590;-75
2022/03/15 10:06:21;;;;;;;7.13;3.72;;;;;16.70;102343.00;;;;4989774;28;20256;-75
2022/03/15 10:08:48;;;;;;;7.60;3.85;;;;;16.80;102334.00;;;;4970546;28;20229;-75
2022/03/15 10:11:18;;;;;;;5.05;3.65;;;;;16.80;102335.00;;;;4969733;28;20207;-75
2022/03/15 10:13:45;;;;;;;6.28;3.85;;;;;16.90;102327.00;;;;5005109;28;21098;-75
2022/03/15 10:16:14;;;;;;;4.78;3.80;;;;;16.90;102327.00;;;;5009473;28;20271;-75
2022/03/15 10:18:51;;;;;;;6.47;3.75;;;;;17.00;102320.00;;;;4995864;28;20206;-75
2022/03/15 10:21:21;;;;;;;6.93;4.32;;;;;17.10;102319.00;;;;4989353;28;20216;-75
2022/03/15 10:23:48;;;;;;;7.55;3.25;;;;;17.10;102316.00;;;;4989317;28;20197;-74
2022/03/15 10:26:24;;;;;;;8.15;3.45;;;;;17.10;102311.00;;;;4988906;28;20201;-74
2022/03/15 10:28:53;;;;;;;6.50;3.63;;;;;17.20;102317.00;;;;4992090;28;20225;-74
2022/03/15 10:31:23;;;;;;;6.85;4.00;;;;;17.30;102313.00;;;;5009171;28;20201;-74
2022/03/15 10:33:52;;;;;;;5.22;3.78;;;;;17.30;102306.00;;;;4994693;28;20291;-74
2022/03/15 10:36:22;;;;;;;8.00;3.67;;;;;17.40;102312.00;;;;4989122;28;20204;-74
2022/03/15 10:38:51;;;;;;;5.60;3.67;;;;;17.40;102314.00;;;;4988913;28;20284;-74
2022/03/15 10:41:19;;;;;;;4.75;3.58;;;;;17.50;102308.00;;;;4989348;28;20213;-74
2022/03/15 10:43:52;;;;;;;7.85;3.80;;;;;17.50;102310.00;;;;4985126;28;20390;-74
2022/03/15 10:46:24;;;;;;;5.60;3.45;;;;;17.50;102301.00;;;;4990430;28;20220;-74
2022/03/15 10:49:00;;;;;;;5.93;3.55;;;;;17.60;102292.00;;;;4991919;28;20233;-74
2022/03/15 10:51:30;;;;;;;4.13;3.13;;;;;17.70;102294.00;;;;4988732;28;20193;-74
2022/03/15 10:54:02;;;;;;;7.93;3.65;;;;;17.70;102293.00;;;;4989181;28;20201;-74
2022/03/15 10:56:30;;;;;;;4.53;3.22;;;;;17.80;102290.00;;;;4988587;28;20206;-74
2022/03/15 10:59:00;;;;;;;6.05;3.65;;;;;17.80;102284.00;;;;4989123;28;20202;-74
2022/03/15 11:01:29;;;;;;;7.60;3.20;;;;;17.90;102281.00;;;;4988810;28;20214;-74
2022/03/15 11:03:58;;;;;;;6.65;3.75;;;;;17.90;102278.00;;;;4999790;28;20675;-74
2022/03/15 11:06:38;;;;;;;6.40;3.40;;;;;17.90;102275.00;;;;5008354;28;20209;-74
2022/03/15 11:09:21;;;;;;;4.55;3.50;;;;;17.90;102268.00;;;;4990573;28;20260;-74
2022/03/15 11:11:53;;;;;;;4.38;3.40;;;;;18.10;102268.00;;;;4989009;28;20209;-74
2022/03/15 11:14:39;;;;;;;6.78;3.80;;;;;18.10;102261.00;;;;4988703;28;20691;-74
2022/03/15 11:17:12;;;;;;;5.53;3.83;;;;;18.20;102251.00;;;;4988359;28;20268;-74
2022/03/15 11:19:41;;;;;;;5.30;3.20;;;;;18.30;102251.00;;;;4988187;28;20201;-74
2022/03/15 11:22:12;;;;;;;4.93;3.08;;;;;18.30;102249.00;;;;4968395;28;20202;-74
2022/03/15 11:24:43;;;;;;;5.38;3.30;;;;;18.40;102238.00;;;;4968425;28;20277;-74
2022/03/15 11:27:14;;;;;;;5.53;3.30;;;;;18.40;102233.00;;;;4968415;28;20206;-74
2022/03/15 11:29:43;;;;;;;6.18;3.20;;;;;18.40;102231.00;;;;4968163;28;20246;-74
2022/03/15 11:32:14;;;;;;;4.00;3.10;;;;;18.40;102230.00;;;;4970350;28;20198;-74
2022/03/15 11:34:42;;;;;;;4.70;3.15;;;;;18.40;102219.00;;;;4972361;28;20324;-74
2022/03/15 11:37:14;;;;;;;5.30;3.25;;;;;18.40;102223.00;;;;4980751;28;20725;-74
2022/03/15 11:39:42;;;;;;;4.45;2.85;;;;;18.40;102215.00;;;;4992073;28;20528;-74
2022/03/15 11:42:11;;;;;;;6.38;3.08;;;;;18.40;102219.00;;;;4991026;28;20564;-74
2022/03/15 11:44:49;;;;;;;5.40;2.78;;;;;18.30;102228.00;;;;4992711;28;20204;-74
2022/03/15 11:47:23;;;;;;;5.90;3.55;;;;;18.30;102217.00;;;;4992575;28;20702;-74
2022/03/15 11:49:59;;;;;;;5.70;3.75;;;;;18.20;102215.00;;;;4992910;28;20228;-75
2022/03/15 11:52:38;;;;;;;4.28;3.13;;;;;18.20;102217.00;;;;4986196;28;20241;-75
2022/03/15 11:55:17;;;;;;;4.82;3.78;;;;;18.20;102212.00;;;;4996624;28;20665;-74
2022/03/15 11:57:49;;;;;;;4.13;3.67;;;;;18.30;102209.00;;;;5011990;28;20207;-74
2022/03/15 12:00:31;;;;;;;5.00;4.40;;;;;18.30;102208.00;;;;5011487;28;20204;-74
2022/03/15 12:03:00;;;;;;;5.80;3.53;;;;;18.50;102204.00;;;;5011871;28;20276;-75
2022/03/15 12:05:27;;;;;;;10.27;4.82;;;;;18.60;102200.00;;;;5005013;28;20388;-75
2022/03/15 12:08:13;;;;;;;6.15;3.72;;;;;18.60;102195.00;;;;4991919;28;20296;-75
2022/03/15 12:10:46;;;;;;;5.20;3.92;;;;;18.80;102187.00;;;;4993129;28;20206;-76
2022/03/15 12:13:15;;;;;;;5.22;3.50;;;;;18.90;102189.00;;;;4971893;28;21240;-75
2022/03/15 12:15:45;;;;;;;6.88;3.67;;;;;19.00;102182.00;;;;4973621;28;20229;-75